createdAt,value
2022-09-12T00:00:06.393Z,89.87
2022-09-12T00:01:06.340Z,89.49
2022-09-12T00:02:06.272Z,89.97
2022-09-12T00:03:06.176Z,90.73
2022-09-12T00:04:06.083Z,91.21
2022-09-12T00:05:06.003Z,91.02
2022-09-12T00:06:05.924Z,90.73
2022-09-12T00:07:05.846Z,91.50
2022-09-12T00:08:05.767Z,91.02
2022-09-12T00:09:05.690Z,90.73
2022-09-12T00:10:05.609Z,90.73
2022-09-12T00:11:05.533Z,91.02
2022-09-12T00:12:05.503Z,90.83
2022-09-12T00:13:05.379Z,91.30
2022-09-12T00:14:05.299Z,91.02
2022-09-12T00:15:05.217Z,90.92
2022-09-12T00:16:05.176Z,91.11
2022-09-12T00:17:05.060Z,91.40
2022-09-12T00:18:04.985Z,91.30
2022-09-12T00:19:04.925Z,91.11
2022-09-12T00:20:04.827Z,90.92
2022-09-12T00:21:04.748Z,90.92
2022-09-12T00:22:04.668Z,90.92
2022-09-12T00:23:04.594Z,90.92
2022-09-12T00:24:04.512Z,90.88
2022-09-12T00:25:04.432Z,90.88
2022-09-12T00:26:04.355Z,91.26
2022-09-12T00:27:04.278Z,90.02
2022-09-12T00:28:04.198Z,90.59
2022-09-12T00:29:04.118Z,90.21
2022-09-12T00:30:04.044Z,90.11
2022-09-12T00:31:03.961Z,90.02
2022-09-12T00:32:04.287Z,89.59
2022-09-12T00:33:03.805Z,89.59
2022-09-12T00:34:03.878Z,89.59
2022-09-12T00:35:03.665Z,89.78
2022-09-12T00:36:03.569Z,89.78
2022-09-12T00:37:03.491Z,89.39
2022-09-12T00:38:03.412Z,89.54
2022-09-12T00:39:04.748Z,89.25
2022-09-12T00:40:03.363Z,89.68
2022-09-12T00:41:03.175Z,89.68
2022-09-12T00:42:03.099Z,90.06
2022-09-12T00:43:03.021Z,89.59
2022-09-12T00:44:02.940Z,89.87
2022-09-12T00:45:02.859Z,89.73
2022-09-12T00:46:02.962Z,90.11
2022-09-12T00:47:02.706Z,90.50
2022-09-12T00:48:02.627Z,90.59
2022-09-12T00:49:02.800Z,90.59
2022-09-12T00:50:02.486Z,90.40
2022-09-12T00:51:06.455Z,89.92
2022-09-12T00:52:02.311Z,90.59
2022-09-12T00:53:02.232Z,90.02
2022-09-12T00:54:02.159Z,90.11
2022-09-12T00:55:02.075Z,90.11
2022-09-12T00:56:01.997Z,89.83
2022-09-12T00:57:01.917Z,89.45
2022-09-12T00:58:01.840Z,89.16
2022-09-12T00:59:01.761Z,89.45
2022-09-12T01:00:01.686Z,89.35
2022-09-12T01:01:01.645Z,89.54
2022-09-12T01:02:01.618Z,88.78
2022-09-12T01:03:01.447Z,89.16
2022-09-12T01:04:01.368Z,89.06
2022-09-12T01:05:01.301Z,89.16
2022-09-12T01:06:01.210Z,89.25
2022-09-12T01:07:01.153Z,89.35
2022-09-12T01:08:01.053Z,88.78
2022-09-12T01:09:00.973Z,89.35
2022-09-12T01:10:00.893Z,89.45
2022-09-12T01:11:00.815Z,89.35
2022-09-12T01:12:00.736Z,89.25
2022-09-12T01:13:00.659Z,89.45
2022-09-12T01:14:00.730Z,89.45
2022-09-12T01:15:00.501Z,89.54
2022-09-12T01:16:00.420Z,89.45
2022-09-12T01:17:00.343Z,89.54
2022-09-12T01:18:00.280Z,89.54
2022-09-12T01:19:00.185Z,89.45
2022-09-12T01:20:00.114Z,89.45
2022-09-12T01:21:00.030Z,89.35
2022-09-12T01:21:59.949Z,89.35
2022-09-12T01:22:59.890Z,89.16
2022-09-12T01:23:59.790Z,89.64
2022-09-12T01:24:59.714Z,89.35
2022-09-12T01:25:59.634Z,89.16
2022-09-12T01:26:59.557Z,88.78
2022-09-12T01:27:59.478Z,88.68
2022-09-12T01:28:59.598Z,88.97
2022-09-12T01:29:59.319Z,88.97
2022-09-12T01:30:59.238Z,88.97
2022-09-12T01:31:59.191Z,89.16
2022-09-12T01:32:59.084Z,89.64
2022-09-12T01:33:59.007Z,89.16
2022-09-12T01:34:58.925Z,89.35
2022-09-12T01:35:58.845Z,89.25
2022-09-12T01:36:58.770Z,89.25
2022-09-12T01:37:58.691Z,89.25
2022-09-12T01:38:58.780Z,89.35
2022-09-12T01:39:58.572Z,89.06
2022-09-12T01:40:58.455Z,88.97
2022-09-12T01:41:58.375Z,88.97
2022-09-12T01:42:58.494Z,88.68
2022-09-12T01:43:58.216Z,88.78
2022-09-12T01:44:58.137Z,88.87
2022-09-12T01:45:58.095Z,88.68
2022-09-12T01:46:57.978Z,88.59
2022-09-12T01:47:57.901Z,88.49
2022-09-12T01:48:57.821Z,88.30
2022-09-12T01:49:57.745Z,88.40
2022-09-12T01:50:57.665Z,88.78
2022-09-12T01:51:57.587Z,88.87
2022-09-12T01:52:57.506Z,88.78
2022-09-12T01:53:57.429Z,89.45
2022-09-12T01:54:57.478Z,88.78
2022-09-12T01:55:57.521Z,88.97
2022-09-12T01:56:57.191Z,88.97
2022-09-12T01:57:57.115Z,89.16
2022-09-12T01:58:57.033Z,89.06
2022-09-12T01:59:56.954Z,88.68
2022-09-12T02:00:56.920Z,88.87
2022-09-12T02:01:56.834Z,88.59
2022-09-12T02:02:56.718Z,88.68
2022-09-12T02:03:56.642Z,88.49
2022-09-12T02:04:56.563Z,88.40
2022-09-12T02:05:56.484Z,88.59
2022-09-12T02:06:56.403Z,88.49
2022-09-12T02:07:56.326Z,87.92
2022-09-12T02:08:56.347Z,88.01
2022-09-12T02:09:56.166Z,87.35
2022-09-12T02:10:56.111Z,87.82
2022-09-12T02:11:56.009Z,87.25
2022-09-12T02:12:55.928Z,87.25
2022-09-12T02:13:55.853Z,87.82
2022-09-12T02:14:55.770Z,87.92
2022-09-12T02:15:55.698Z,87.63
2022-09-12T02:16:55.616Z,88.54
2022-09-12T02:17:55.537Z,88.40
2022-09-12T02:18:55.459Z,88.40
2022-09-12T02:19:55.380Z,87.54
2022-09-12T02:20:55.300Z,88.11
2022-09-12T02:21:55.228Z,87.73
2022-09-12T02:22:55.144Z,87.82
2022-09-12T02:23:55.064Z,87.82
2022-09-12T02:24:54.985Z,87.82
2022-09-12T02:25:54.907Z,87.92
2022-09-12T02:26:54.845Z,87.82
2022-09-12T02:27:54.747Z,88.68
2022-09-12T02:28:54.670Z,88.59
2022-09-12T02:29:54.592Z,88.45
2022-09-12T02:30:54.533Z,88.11
2022-09-12T02:31:54.434Z,88.49
2022-09-12T02:32:54.353Z,88.30
2022-09-12T02:33:54.277Z,88.78
2022-09-12T02:34:54.197Z,87.92
2022-09-12T02:35:54.120Z,88.01
2022-09-12T02:36:54.038Z,87.68
2022-09-12T02:37:53.959Z,87.97
2022-09-12T02:38:53.880Z,87.78
2022-09-12T02:39:53.828Z,87.78
2022-09-12T02:40:53.723Z,87.97
2022-09-12T02:41:53.645Z,88.01
2022-09-12T02:42:53.585Z,88.01
2022-09-12T02:43:53.634Z,87.59
2022-09-12T02:44:53.409Z,88.16
2022-09-12T02:45:53.404Z,87.87
2022-09-12T02:46:53.251Z,87.97
2022-09-12T02:47:53.173Z,87.73
2022-09-12T02:48:53.092Z,87.92
2022-09-12T02:49:53.014Z,87.97
2022-09-12T02:50:52.935Z,89.02
2022-09-12T02:51:52.854Z,89.31
2022-09-12T02:52:52.775Z,89.50
2022-09-12T02:53:52.696Z,88.73
2022-09-12T02:54:52.619Z,88.92
2022-09-12T02:55:52.540Z,88.64
2022-09-12T02:56:52.461Z,88.59
2022-09-12T02:57:52.381Z,88.83
2022-09-12T02:58:52.371Z,88.59
2022-09-12T02:59:52.225Z,88.45
2022-09-12T03:00:52.187Z,88.59
2022-09-12T03:01:52.092Z,88.59
2022-09-12T03:02:51.989Z,88.49
2022-09-12T03:03:51.909Z,88.11
2022-09-12T03:04:51.832Z,88.01
2022-09-12T03:05:51.753Z,87.63
2022-09-12T03:06:51.673Z,88.40
2022-09-12T03:07:51.593Z,88.54
2022-09-12T03:08:51.516Z,89.59
2022-09-12T03:09:51.435Z,88.92
2022-09-12T03:10:51.365Z,89.31
2022-09-12T03:11:51.277Z,89.40
2022-09-12T03:12:51.201Z,89.50
2022-09-12T03:13:51.119Z,89.31
2022-09-12T03:14:51.063Z,89.31
2022-09-12T03:15:50.961Z,89.31
2022-09-12T03:16:50.883Z,89.40
2022-09-12T03:17:50.806Z,89.12
2022-09-12T03:18:50.926Z,89.40
2022-09-12T03:19:50.644Z,89.21
2022-09-12T03:20:50.568Z,89.21
2022-09-12T03:21:50.508Z,89.21
2022-09-12T03:22:51.215Z,89.31
2022-09-12T03:23:50.330Z,88.92
2022-09-12T03:24:50.253Z,88.64
2022-09-12T03:25:50.171Z,88.45
2022-09-12T03:26:50.096Z,88.16
2022-09-12T03:27:50.014Z,88.35
2022-09-12T03:28:49.933Z,88.73
2022-09-12T03:29:49.856Z,88.45
2022-09-12T03:30:49.820Z,88.64
2022-09-12T03:31:49.697Z,88.45
2022-09-12T03:32:49.620Z,88.45
2022-09-12T03:33:49.539Z,88.35
2022-09-12T03:34:49.459Z,88.35
2022-09-12T03:35:49.387Z,88.73
2022-09-12T03:36:49.304Z,88.73
2022-09-12T03:37:49.221Z,88.83
2022-09-12T03:38:49.147Z,88.64
2022-09-12T03:39:49.115Z,88.50
2022-09-12T03:40:54.083Z,88.45
2022-09-12T03:41:48.907Z,87.45
2022-09-12T03:42:48.838Z,87.78
2022-09-12T03:43:48.748Z,87.97
2022-09-12T03:44:48.670Z,87.78
2022-09-12T03:45:48.630Z,87.74
2022-09-12T03:46:48.530Z,88.16
2022-09-12T03:47:48.431Z,87.54
2022-09-12T03:48:48.353Z,87.59
2022-09-12T03:49:48.273Z,88.07
2022-09-12T03:50:48.194Z,87.59
2022-09-12T03:51:48.113Z,87.11
2022-09-12T03:52:48.036Z,87.21
2022-09-12T03:53:47.956Z,87.21
2022-09-12T03:54:47.878Z,87.21
2022-09-12T03:55:47.799Z,87.02
2022-09-12T03:56:47.720Z,86.98
2022-09-12T03:57:47.637Z,87.07
2022-09-12T03:58:47.606Z,87.11
2022-09-12T03:59:47.479Z,87.11
2022-09-12T04:00:47.416Z,87.02
2022-09-12T04:01:47.321Z,87.21
2022-09-12T04:02:47.263Z,87.02
2022-09-12T04:03:47.161Z,87.21
2022-09-12T04:04:47.085Z,87.02
2022-09-12T04:05:47.005Z,86.73
2022-09-12T04:06:46.928Z,87.21
2022-09-12T04:07:46.944Z,87.11
2022-09-12T04:08:46.881Z,86.98
2022-09-12T04:09:46.687Z,87.21
2022-09-12T04:10:47.030Z,86.88
2022-09-12T04:11:46.537Z,86.98
2022-09-12T04:12:46.450Z,87.16
2022-09-12T04:13:46.368Z,87.35
2022-09-12T04:14:46.295Z,87.54
2022-09-12T04:15:46.210Z,87.26
2022-09-12T04:16:46.220Z,86.98
2022-09-12T04:17:46.055Z,87.16
2022-09-12T04:18:46.199Z,86.88
2022-09-12T04:19:45.894Z,87.07
2022-09-12T04:20:46.018Z,87.40
2022-09-12T04:21:45.739Z,87.21
2022-09-12T04:22:45.659Z,87.40
2022-09-12T04:23:45.583Z,86.63
2022-09-12T04:24:45.500Z,86.82
2022-09-12T04:25:45.422Z,86.54
2022-09-12T04:26:45.345Z,87.30
2022-09-12T04:27:45.260Z,87.40
2022-09-12T04:28:45.265Z,87.59
2022-09-12T04:29:45.105Z,87.02
2022-09-12T04:30:45.143Z,87.21
2022-09-12T04:31:44.944Z,87.49
2022-09-12T04:32:44.864Z,86.73
2022-09-12T04:33:44.785Z,86.49
2022-09-12T04:34:44.725Z,86.82
2022-09-12T04:35:44.650Z,86.82
2022-09-12T04:36:44.548Z,86.73
2022-09-12T04:37:44.469Z,86.54
2022-09-12T04:38:44.432Z,86.44
2022-09-12T04:39:44.354Z,86.16
2022-09-12T04:40:44.232Z,86.44
2022-09-12T04:41:44.150Z,86.73
2022-09-12T04:42:44.074Z,86.69
2022-09-12T04:43:43.994Z,86.73
2022-09-12T04:44:43.913Z,86.73
2022-09-12T04:45:43.855Z,86.30
2022-09-12T04:46:43.757Z,87.02
2022-09-12T04:47:43.674Z,86.63
2022-09-12T04:48:43.697Z,86.59
2022-09-12T04:49:43.520Z,86.69
2022-09-12T04:50:43.459Z,87.35
2022-09-12T04:51:43.359Z,86.54
2022-09-12T04:52:43.280Z,86.44
2022-09-12T04:53:43.202Z,86.69
2022-09-12T04:54:43.123Z,86.59
2022-09-12T04:55:43.043Z,86.69
2022-09-12T04:56:42.963Z,86.59
2022-09-12T04:57:42.884Z,86.69
2022-09-12T04:58:42.832Z,86.59
2022-09-12T04:59:42.728Z,86.78
2022-09-12T05:00:42.648Z,86.78
2022-09-12T05:01:42.568Z,86.88
2022-09-12T05:02:42.489Z,86.78
2022-09-12T05:03:42.406Z,86.40
2022-09-12T05:04:42.330Z,86.88
2022-09-12T05:05:42.401Z,86.78
2022-09-12T05:06:42.208Z,86.78
2022-09-12T05:07:42.093Z,86.78
2022-09-12T05:08:42.042Z,86.88
2022-09-12T05:09:41.935Z,86.69
2022-09-12T05:10:41.856Z,86.59
2022-09-12T05:12:03.323Z,86.40
2022-09-12T05:12:41.698Z,86.21
2022-09-12T05:13:41.618Z,86.02
2022-09-12T05:14:41.540Z,85.93
2022-09-12T05:15:41.460Z,86.21
2022-09-12T05:16:41.453Z,85.83
2022-09-12T05:17:41.304Z,85.83
2022-09-12T05:18:41.222Z,86.02
2022-09-12T05:19:41.144Z,85.83
2022-09-12T05:20:41.067Z,85.83
2022-09-12T05:21:40.985Z,85.83
2022-09-12T05:22:40.928Z,85.54
2022-09-12T05:23:40.828Z,85.35
2022-09-12T05:24:40.750Z,85.64
2022-09-12T05:25:40.669Z,85.49
2022-09-12T05:26:40.600Z,85.54
2022-09-12T05:27:40.511Z,85.54
2022-09-12T05:28:40.641Z,85.68
2022-09-12T05:29:40.360Z,85.58
2022-09-12T05:30:40.299Z,85.68
2022-09-12T05:31:40.198Z,85.58
2022-09-12T05:32:40.121Z,85.54
2022-09-12T05:33:40.040Z,85.30
2022-09-12T05:34:39.963Z,85.39
2022-09-12T05:35:39.883Z,84.72
2022-09-12T05:36:39.806Z,85.30
2022-09-12T05:37:39.727Z,84.44
2022-09-12T05:38:39.674Z,84.63
2022-09-12T05:39:39.591Z,84.92
2022-09-12T05:40:39.493Z,84.82
2022-09-12T05:41:39.414Z,84.72
2022-09-12T05:42:39.386Z,85.01
2022-09-12T05:43:39.256Z,85.01
2022-09-12T05:44:39.279Z,85.21
2022-09-12T05:45:39.129Z,85.58
2022-09-12T05:46:39.030Z,85.39
2022-09-12T05:47:38.945Z,85.39
2022-09-12T05:48:38.869Z,85.49
2022-09-12T05:49:38.788Z,85.58
2022-09-12T05:50:38.711Z,85.68
2022-09-12T05:51:38.631Z,85.49
2022-09-12T05:52:38.555Z,85.68
2022-09-12T05:53:38.476Z,85.68
2022-09-12T05:54:38.417Z,85.58
2022-09-12T05:55:38.318Z,85.58
2022-09-12T05:56:38.241Z,85.58
2022-09-12T05:57:38.161Z,85.30
2022-09-12T05:58:38.085Z,85.39
2022-09-12T05:59:38.007Z,85.21
2022-09-12T06:00:37.929Z,85.21
2022-09-12T06:01:37.923Z,85.11
2022-09-12T06:02:37.808Z,85.39
2022-09-12T06:03:37.694Z,85.39
2022-09-12T06:04:37.615Z,85.77
2022-09-12T06:05:37.536Z,85.58
2022-09-12T06:06:37.461Z,85.77
2022-09-12T06:07:37.381Z,85.68
2022-09-12T06:08:37.305Z,85.72
2022-09-12T06:09:37.225Z,85.63
2022-09-12T06:10:37.167Z,85.58
2022-09-12T06:11:37.068Z,85.63
2022-09-12T06:12:37.091Z,85.44
2022-09-12T06:13:36.919Z,85.72
2022-09-12T06:14:36.836Z,85.53
2022-09-12T06:15:36.757Z,85.44
2022-09-12T06:16:36.704Z,85.34
2022-09-12T06:17:36.848Z,85.25
2022-09-12T06:18:36.523Z,85.25
2022-09-12T06:19:36.443Z,85.15
2022-09-12T06:20:36.367Z,85.25
2022-09-12T06:21:36.439Z,85.25
2022-09-12T06:22:36.213Z,85.29
2022-09-12T06:23:36.132Z,85.10
2022-09-12T06:24:36.056Z,85.10
2022-09-12T06:25:35.979Z,85.38
2022-09-12T06:26:35.918Z,85.77
2022-09-12T06:27:35.824Z,85.38
2022-09-12T06:28:35.747Z,85.58
2022-09-12T06:29:35.916Z,85.77
2022-09-12T06:30:35.613Z,85.48
2022-09-12T06:31:35.510Z,85.67
2022-09-12T06:32:35.435Z,85.77
2022-09-12T06:33:35.358Z,85.67
2022-09-12T06:34:35.283Z,85.81
2022-09-12T06:35:35.203Z,85.90
2022-09-12T06:36:35.127Z,86.00
2022-09-12T06:37:35.049Z,85.71
2022-09-12T06:38:35.064Z,85.81
2022-09-12T06:39:34.948Z,86.47
2022-09-12T06:40:34.820Z,87.15
2022-09-12T06:41:34.741Z,87.15
2022-09-12T06:42:34.686Z,87.05
2022-09-12T06:43:34.593Z,88.10
2022-09-12T06:44:34.511Z,88.01
2022-09-12T06:45:34.434Z,87.76
2022-09-12T06:46:34.355Z,88.05
2022-09-12T06:47:34.278Z,87.62
2022-09-12T06:48:37.307Z,87.95
2022-09-12T06:49:34.127Z,88.72
2022-09-12T06:50:34.050Z,88.81
2022-09-12T06:51:33.972Z,89.01
2022-09-12T06:52:33.897Z,88.81
2022-09-12T06:53:33.817Z,89.67
2022-09-12T06:54:33.743Z,90.53
2022-09-12T06:55:33.666Z,91.39
2022-09-12T06:56:33.590Z,91.11
2022-09-12T06:57:33.515Z,91.02
2022-09-12T06:58:33.453Z,91.68
2022-09-12T06:59:33.410Z,91.78
2022-09-12T07:00:33.285Z,91.59
2022-09-12T07:01:33.336Z,91.44
2022-09-12T07:02:33.152Z,91.63
2022-09-12T07:03:33.055Z,91.53
2022-09-12T07:04:32.978Z,91.63
2022-09-12T07:05:32.903Z,91.92
2022-09-12T07:06:32.829Z,92.11
2022-09-12T07:07:32.760Z,91.83
2022-09-12T07:08:32.673Z,92.30
2022-09-12T07:09:32.599Z,92.40
2022-09-12T07:10:32.523Z,92.88
2022-09-12T07:11:32.447Z,93.45
2022-09-12T07:12:32.367Z,93.50
2022-09-12T07:13:32.295Z,93.98
2022-09-12T07:14:32.246Z,93.88
2022-09-12T07:15:32.140Z,93.88
2022-09-12T07:16:32.163Z,94.65
2022-09-12T07:17:31.990Z,94.36
2022-09-12T07:18:31.916Z,94.65
2022-09-12T07:19:31.839Z,94.93
2022-09-12T07:20:31.761Z,95.51
2022-09-12T07:21:31.687Z,96.03
2022-09-12T07:22:31.613Z,96.51
2022-09-12T07:23:31.536Z,97.56
2022-09-12T07:24:31.458Z,98.33
2022-09-12T07:25:31.384Z,98.52
2022-09-12T07:26:31.308Z,98.33
2022-09-12T07:27:31.232Z,99.34
2022-09-12T07:28:31.155Z,99.99
2022-09-12T07:29:38.330Z,99.99
2022-09-12T07:30:31.065Z,99.91
2022-09-12T07:31:30.930Z,98.86
2022-09-12T07:32:30.858Z,98.76
2022-09-12T07:33:30.780Z,99.15
2022-09-12T07:34:30.702Z,99.91
2022-09-12T07:35:30.627Z,99.99
2022-09-12T07:36:30.552Z,99.58
2022-09-12T07:37:30.477Z,99.99
2022-09-12T07:38:30.400Z,99.99
2022-09-12T07:39:30.326Z,99.99
2022-09-12T07:40:30.250Z,99.99
2022-09-12T07:41:30.273Z,99.99
2022-09-12T07:42:30.098Z,99.99
2022-09-12T07:43:30.027Z,99.99
2022-09-12T07:44:29.945Z,99.99
2022-09-12T07:45:29.874Z,99.99
2022-09-12T07:46:29.815Z,99.99
2022-09-12T07:47:29.720Z,99.99
2022-09-12T07:48:29.645Z,99.99
2022-09-12T07:49:29.571Z,99.99
2022-09-12T07:50:29.496Z,99.99
2022-09-12T07:51:29.670Z,99.99
2022-09-12T07:52:29.349Z,99.99
2022-09-12T07:53:29.269Z,99.99
2022-09-12T07:54:29.196Z,99.99
2022-09-12T07:55:29.122Z,99.99
2022-09-12T07:56:31.357Z,99.99
2022-09-12T07:57:28.970Z,99.99
2022-09-12T07:58:28.896Z,99.99
2022-09-12T07:59:50.819Z,99.99
2022-09-12T08:00:28.750Z,99.99
2022-09-12T08:01:28.736Z,99.99
2022-09-12T08:03:28.537Z,99.99
2022-09-12T08:04:28.444Z,99.99
2022-09-12T08:05:28.368Z,99.99
2022-09-12T08:06:28.293Z,99.99
2022-09-12T08:07:28.219Z,99.99
2022-09-12T08:08:28.145Z,99.99
2022-09-12T08:09:28.070Z,99.99
2022-09-12T08:10:27.992Z,99.99
2022-09-12T08:11:27.921Z,99.99
2022-09-12T08:12:27.845Z,99.99
2022-09-12T08:13:27.767Z,99.99
2022-09-12T08:14:27.694Z,99.99
2022-09-12T08:15:27.680Z,99.99
2022-09-12T08:16:27.544Z,99.99
2022-09-12T08:17:27.470Z,99.99
2022-09-12T08:18:27.399Z,99.99
2022-09-12T08:19:27.338Z,99.99
2022-09-12T08:20:28.466Z,99.99
2022-09-12T08:21:27.168Z,99.99
2022-09-12T08:22:27.100Z,99.99
2022-09-12T08:23:27.020Z,99.99
2022-09-12T08:24:26.947Z,99.99
2022-09-12T08:25:26.869Z,99.99
2022-09-12T08:26:26.796Z,99.99
2022-09-12T08:27:26.721Z,99.99
2022-09-12T08:28:26.647Z,99.99
2022-09-12T08:29:26.571Z,99.99
2022-09-12T08:30:26.498Z,99.99
2022-09-12T08:31:26.419Z,99.99
2022-09-12T08:32:26.346Z,99.99
2022-09-12T08:33:26.268Z,99.99
2022-09-12T08:34:26.206Z,99.99
2022-09-12T08:35:26.140Z,99.99
2022-09-12T08:36:26.048Z,99.99
2022-09-12T08:37:25.973Z,99.99
2022-09-12T08:38:25.899Z,99.99
2022-09-12T08:39:25.822Z,99.99
2022-09-12T08:40:25.751Z,99.99
2022-09-12T08:41:25.677Z,99.99
2022-09-12T08:42:25.603Z,99.99
2022-09-12T08:43:25.527Z,99.99
2022-09-12T08:44:25.452Z,99.99
2022-09-12T08:45:25.377Z,99.99
2022-09-12T08:46:25.395Z,99.99
2022-09-12T08:47:25.226Z,99.99
2022-09-12T08:48:25.154Z,99.99
2022-09-12T08:49:25.080Z,99.99
2022-09-12T08:50:25.005Z,99.99
2022-09-12T08:51:24.948Z,99.99
2022-09-12T08:52:24.858Z,99.99
2022-09-12T08:53:24.783Z,99.99
2022-09-12T08:54:24.706Z,99.99
2022-09-12T08:55:24.782Z,99.99
2022-09-12T08:56:28.441Z,99.99
2022-09-12T08:57:24.486Z,99.99
2022-09-12T08:58:24.410Z,99.99
2022-09-12T08:59:24.634Z,99.99
2022-09-12T09:00:24.262Z,99.99
2022-09-12T09:01:24.234Z,99.99
2022-09-12T09:02:24.155Z,99.99
2022-09-12T09:03:26.664Z,99.99
2022-09-12T09:04:26.924Z,99.26
2022-09-12T09:05:23.890Z,99.44
2022-09-12T09:06:23.817Z,99.99
2022-09-12T09:07:23.762Z,99.64
2022-09-12T09:08:23.668Z,99.16
2022-09-12T09:09:23.591Z,98.58
2022-09-12T09:10:23.530Z,98.58
2022-09-12T09:11:23.447Z,98.58
2022-09-12T09:12:23.375Z,98.00
2022-09-12T09:13:23.298Z,98.97
2022-09-12T09:14:23.223Z,99.69
2022-09-12T09:15:23.152Z,98.34
2022-09-12T09:16:23.231Z,98.72
2022-09-12T09:17:23.002Z,97.86
2022-09-12T09:18:22.929Z,98.72
2022-09-12T09:19:22.856Z,97.09
2022-09-12T09:20:22.782Z,96.32
2022-09-12T09:21:22.718Z,96.80
2022-09-12T09:22:22.631Z,95.94
2022-09-12T09:23:22.579Z,96.32
2022-09-12T09:24:22.486Z,96.51
2022-09-12T09:25:23.136Z,96.03
2022-09-12T09:26:22.339Z,96.32
2022-09-12T09:27:40.018Z,96.12
2022-09-12T09:28:22.190Z,96.37
2022-09-12T09:29:22.117Z,95.31
2022-09-12T09:30:22.050Z,95.11
2022-09-12T09:31:22.085Z,95.59
2022-09-12T09:32:21.898Z,94.63
2022-09-12T09:33:21.821Z,93.38
2022-09-12T09:34:21.750Z,93.76
2022-09-12T09:35:21.728Z,94.34
2022-09-12T09:36:21.602Z,93.76
2022-09-12T09:37:21.536Z,92.71
2022-09-12T09:38:21.457Z,91.93
2022-09-12T09:39:21.398Z,92.22
2022-09-12T09:40:21.373Z,92.32
2022-09-12T09:41:21.235Z,94.20
2022-09-12T09:42:21.212Z,92.94
2022-09-12T09:43:21.087Z,91.20
2022-09-12T09:44:21.016Z,90.24
2022-09-12T09:45:20.942Z,91.69
2022-09-12T09:46:20.985Z,92.56
2022-09-12T09:47:20.795Z,92.75
2022-09-12T09:48:20.725Z,93.52
2022-09-12T09:49:20.648Z,91.60
2022-09-12T09:50:20.579Z,92.17
2022-09-12T09:51:20.504Z,91.88
2022-09-12T09:52:20.433Z,90.44
2022-09-12T09:53:20.558Z,92.36
2022-09-12T09:54:20.290Z,89.86
2022-09-12T09:55:20.233Z,91.25
2022-09-12T09:56:23.137Z,88.65
2022-09-12T09:57:20.067Z,87.78
2022-09-12T09:58:19.999Z,90.48
2022-09-12T09:59:19.952Z,89.81
2022-09-12T10:00:19.854Z,89.23
2022-09-12T10:01:19.812Z,89.18
2022-09-12T10:02:23.785Z,88.89
2022-09-12T10:03:19.629Z,89.37
2022-09-12T10:04:19.561Z,90.15
2022-09-12T10:05:19.487Z,90.72
2022-09-12T10:06:19.414Z,90.00
2022-09-12T10:07:19.384Z,89.95
2022-09-12T10:08:19.269Z,90.48
2022-09-12T10:09:19.199Z,90.48
2022-09-12T10:10:19.124Z,89.71
2022-09-12T10:11:19.075Z,91.06
2022-09-12T10:12:19.232Z,90.38
2022-09-12T10:13:18.905Z,90.58
2022-09-12T10:14:18.831Z,90.77
2022-09-12T10:15:18.759Z,91.93
2022-09-12T10:16:18.760Z,89.90
2022-09-12T10:17:18.614Z,88.55
2022-09-12T10:18:18.544Z,88.36
2022-09-12T10:19:18.471Z,86.82
2022-09-12T10:20:21.492Z,86.82
2022-09-12T10:21:18.525Z,88.55
2022-09-12T10:22:18.255Z,90.09
2022-09-12T10:23:18.182Z,89.51
2022-09-12T10:24:18.108Z,90.00
2022-09-12T10:25:18.036Z,90.09
2022-09-12T10:26:17.965Z,90.81
2022-09-12T10:27:17.912Z,88.02
2022-09-12T10:28:17.821Z,86.62
2022-09-12T10:29:17.754Z,86.52
2022-09-12T10:30:17.683Z,86.04
2022-09-12T10:31:17.735Z,86.96
2022-09-12T10:32:17.535Z,85.60
2022-09-12T10:33:17.457Z,83.87
2022-09-12T10:34:17.387Z,83.29
2022-09-12T10:35:17.314Z,83.67
2022-09-12T10:36:17.241Z,83.87
2022-09-12T10:37:17.170Z,83.67
2022-09-12T10:38:17.100Z,83.39
2022-09-12T10:39:17.027Z,84.83
2022-09-12T10:40:17.156Z,83.42
2022-09-12T10:41:16.882Z,82.36
2022-09-12T10:42:21.558Z,82.46
2022-09-12T10:43:59.242Z,81.88
2022-09-12T10:44:59.162Z,83.52
2022-09-12T10:45:59.164Z,83.62
2022-09-12T10:46:59.008Z,82.94
2022-09-12T10:47:58.935Z,84.72
2022-09-12T10:48:58.865Z,85.49
2022-09-12T10:49:58.794Z,84.82
2022-09-12T10:50:58.728Z,84.24
2022-09-12T10:51:58.649Z,82.50
2022-09-12T10:52:58.581Z,82.50
2022-09-12T10:53:58.507Z,80.76
2022-09-12T10:54:58.432Z,83.37
2022-09-12T10:55:58.363Z,83.18
2022-09-12T10:56:58.293Z,81.59
2022-09-12T10:57:58.219Z,81.78
2022-09-12T10:58:58.149Z,83.72
2022-09-12T10:59:58.295Z,82.75
2022-09-12T11:00:58.017Z,83.04
2022-09-12T11:01:57.932Z,83.52
2022-09-12T11:02:57.863Z,84.68
2022-09-12T11:03:57.790Z,84.58
2022-09-12T11:04:57.721Z,85.36
2022-09-12T11:05:57.650Z,84.20
2022-09-12T11:06:57.576Z,84.00
2022-09-12T11:07:57.504Z,83.81
2022-09-12T11:08:57.434Z,83.04
2022-09-12T11:09:57.360Z,84.91
2022-09-12T11:10:57.289Z,84.24
2022-09-12T11:11:57.218Z,82.40
2022-09-12T11:12:57.297Z,83.27
2022-09-12T11:13:57.073Z,84.24
2022-09-12T11:14:57.009Z,83.18
2022-09-12T11:15:57.035Z,83.56
2022-09-12T11:16:56.862Z,82.98
2022-09-12T11:17:56.790Z,83.72
2022-09-12T11:18:56.717Z,83.91
2022-09-12T11:19:56.647Z,83.72
2022-09-12T11:20:56.578Z,83.81
2022-09-12T11:21:56.503Z,84.39
2022-09-12T11:22:56.433Z,84.88
2022-09-12T11:23:56.360Z,85.55
2022-09-12T11:24:56.290Z,84.88
2022-09-12T11:25:56.219Z,85.30
2022-09-12T11:26:56.148Z,82.98
2022-09-12T11:27:56.084Z,83.37
2022-09-12T11:28:56.004Z,84.47
2022-09-12T11:29:55.935Z,83.84
2022-09-12T11:30:55.906Z,81.65
2022-09-12T11:31:55.817Z,80.01
2022-09-12T11:32:55.720Z,78.85
2022-09-12T11:33:56.942Z,79.82
2022-09-12T11:34:55.580Z,78.75
2022-09-12T11:35:55.797Z,78.08
2022-09-12T11:36:55.437Z,78.56
2022-09-12T11:37:55.367Z,77.53
2022-09-12T11:38:55.298Z,77.53
2022-09-12T11:39:56.007Z,77.73
2022-09-12T11:40:55.157Z,78.59
2022-09-12T11:41:55.088Z,78.56
2022-09-12T11:42:55.017Z,77.88
2022-09-12T11:43:54.945Z,78.03
2022-09-12T11:44:54.907Z,80.07
2022-09-12T11:45:54.849Z,80.80
2022-09-12T11:46:54.821Z,80.80
2022-09-12T11:47:54.683Z,81.19
2022-09-12T11:48:54.607Z,81.48
2022-09-12T11:49:54.525Z,81.67
2022-09-12T11:50:54.454Z,82.02
2022-09-12T11:51:54.385Z,80.57
2022-09-12T11:52:54.314Z,81.09
2022-09-12T11:53:54.242Z,81.77
2022-09-12T11:54:54.292Z,83.22
2022-09-12T11:55:54.101Z,80.12
2022-09-12T11:56:54.032Z,78.09
2022-09-12T11:57:53.962Z,78.64
2022-09-12T11:58:53.892Z,79.89
2022-09-12T11:59:53.817Z,80.47
2022-09-12T12:00:53.752Z,80.66
2022-09-12T12:01:53.677Z,80.38
2022-09-12T12:02:53.609Z,79.22
2022-09-12T12:03:53.592Z,80.80
2022-09-12T12:04:53.467Z,80.38
2022-09-12T12:05:53.403Z,79.10
2022-09-12T12:06:53.327Z,76.12
2022-09-12T12:07:53.255Z,74.16
2022-09-12T12:08:53.191Z,74.41
2022-09-12T12:09:53.115Z,76.97
2022-09-12T12:10:53.045Z,75.57
2022-09-12T12:11:52.978Z,74.38
2022-09-12T12:12:52.908Z,74.24
2022-09-12T12:13:52.839Z,74.40
2022-09-12T12:14:52.769Z,74.88
2022-09-12T12:15:52.736Z,76.04
2022-09-12T12:16:52.630Z,77.59
2022-09-12T12:17:52.558Z,78.71
2022-09-12T12:18:52.490Z,78.71
2022-09-12T12:19:52.440Z,78.71
2022-09-12T12:20:52.351Z,77.45
2022-09-12T12:21:52.279Z,77.55
2022-09-12T12:22:52.211Z,79.39
2022-09-12T12:23:52.140Z,79.87
2022-09-12T12:24:52.072Z,80.12
2022-09-12T12:25:52.001Z,78.58
2022-09-12T12:26:51.931Z,78.96
2022-09-12T12:27:51.859Z,80.03
2022-09-12T12:28:51.793Z,80.80
2022-09-12T12:29:51.720Z,81.77
2022-09-12T12:30:51.695Z,84.09
2022-09-12T12:31:51.580Z,80.51
2022-09-12T12:32:51.509Z,80.03
2022-09-12T12:33:51.441Z,82.54
2022-09-12T12:34:51.368Z,81.38
2022-09-12T12:35:51.316Z,81.48
2022-09-12T12:36:51.230Z,80.74
2022-09-12T12:37:51.257Z,78.19
2022-09-12T12:38:51.087Z,77.55
2022-09-12T12:39:51.313Z,76.93
2022-09-12T12:40:50.945Z,77.71
2022-09-12T12:41:50.877Z,79.29
2022-09-12T12:42:50.805Z,78.23
2022-09-12T12:43:50.744Z,80.59
2022-09-12T12:44:50.665Z,76.93
2022-09-12T12:45:50.792Z,73.90
2022-09-12T12:46:50.528Z,73.42
2022-09-12T12:47:50.455Z,72.99
2022-09-12T12:48:50.387Z,73.93
2022-09-12T12:49:50.317Z,73.35
2022-09-12T12:50:50.246Z,72.63
2022-09-12T12:51:50.193Z,73.08
2022-09-12T12:52:50.117Z,73.37